sensor_id;sensor_type;location;lat;lon;timestamp;temperature;humidity
13713;DHT22;6928;50.546;7.120;2023-03-17T00:00:34;8.23;66.68
13713;DHT22;6928;50.546;7.120;2023-03-17T00:03:01;8.16;66.74
13713;DHT22;6928;50.546;7.120;2023-03-17T00:05:32;8.16;66.80
13713;DHT22;6928;50.546;7.120;2023-03-17T00:08:06;8.20;66.83
13713;DHT22;6928;50.546;7.120;2023-03-17T00:10:37;8.10;67.00
13713;DHT22;6928;50.546;7.120;2023-03-17T00:13:05;8.13;66.87
13713;DHT22;6928;50.546;7.120;2023-03-17T00:15:32;8.10;67.10
13713;DHT22;6928;50.546;7.120;2023-03-17T00:17:59;8.10;67.01
13713;DHT22;6928;50.546;7.120;2023-03-17T00:20:27;8.13;67.10
13713;DHT22;6928;50.546;7.120;2023-03-17T00:22:57;8.06;67.23
13713;DHT22;6928;50.546;7.120;2023-03-17T00:25:28;8.05;67.35
13713;DHT22;6928;50.546;7.120;2023-03-17T00:27:56;8.03;67.28
13713;DHT22;6928;50.546;7.120;2023-03-17T00:30:24;7.99;67.39
13713;DHT22;6928;50.546;7.120;2023-03-17T00:32:54;7.99;67.26
13713;DHT22;6928;50.546;7.120;2023-03-17T00:35:24;7.92;67.55
13713;DHT22;6928;50.546;7.120;2023-03-17T00:37:53;7.92;67.81
13713;DHT22;6928;50.546;7.120;2023-03-17T00:40:23;8.00;67.40
13713;DHT22;6928;50.546;7.120;2023-03-17T00:42:52;8.02;67.45
13713;DHT22;6928;50.546;7.120;2023-03-17T00:45:22;8.05;67.29
13713;DHT22;6928;50.546;7.120;2023-03-17T00:47:51;8.00;67.39
13713;DHT22;6928;50.546;7.120;2023-03-17T00:50:21;7.95;67.42
13713;DHT22;6928;50.546;7.120;2023-03-17T00:52:50;7.99;67.26
13713;DHT22;6928;50.546;7.120;2023-03-17T00:55:17;7.93;67.54
13713;DHT22;6928;50.546;7.120;2023-03-17T00:57:45;7.86;67.83
13713;DHT22;6928;50.546;7.120;2023-03-17T01:00:23;7.88;67.94
13713;DHT22;6928;50.546;7.120;2023-03-17T01:02:52;7.93;67.63
13713;DHT22;6928;50.546;7.120;2023-03-17T01:05:21;8.00;67.56
13713;DHT22;6928;50.546;7.120;2023-03-17T01:07:52;7.96;67.66
13713;DHT22;6928;50.546;7.120;2023-03-17T01:10:22;7.99;67.72
13713;DHT22;6928;50.546;7.120;2023-03-17T01:12:51;7.93;67.94
13713;DHT22;6928;50.546;7.120;2023-03-17T01:15:18;7.88;67.94
13713;DHT22;6928;50.546;7.120;2023-03-17T01:17:49;7.95;67.93
13713;DHT22;6928;50.546;7.120;2023-03-17T01:20:18;7.98;67.79
13713;DHT22;6928;50.546;7.120;2023-03-17T01:22:46;7.96;67.72
13713;DHT22;6928;50.546;7.120;2023-03-17T01:25:15;7.95;68.01
13713;DHT22;6928;50.546;7.120;2023-03-17T01:27:44;7.95;67.95
13713;DHT22;6928;50.546;7.120;2023-03-17T01:30:23;7.92;68.08
13713;DHT22;6928;50.546;7.120;2023-03-17T01:32:51;7.89;68.20
13713;DHT22;6928;50.546;7.120;2023-03-17T01:35:19;7.85;68.51
13713;DHT22;6928;50.546;7.120;2023-03-17T01:37:46;7.82;68.43
13713;DHT22;6928;50.546;7.120;2023-03-17T01:40:16;7.88;68.28
13713;DHT22;6928;50.546;7.120;2023-03-17T01:42:50;7.86;68.15
13713;DHT22;6928;50.546;7.120;2023-03-17T01:49:11;7.81;68.46
13713;DHT22;6928;50.546;7.120;2023-03-17T01:51:47;7.81;68.62
13713;DHT22;6928;50.546;7.120;2023-03-17T01:54:19;7.82;68.59
13713;DHT22;6928;50.546;7.120;2023-03-17T01:56:49;7.82;68.69
13713;DHT22;6928;50.546;7.120;2023-03-17T01:59:21;7.79;68.82
13713;DHT22;6928;50.546;7.120;2023-03-17T02:01:53;7.85;68.58
13713;DHT22;6928;50.546;7.120;2023-03-17T02:04:24;7.90;68.46
13713;DHT22;6928;50.546;7.120;2023-03-17T02:06:51;7.88;68.46
13713;DHT22;6928;50.546;7.120;2023-03-17T02:09:18;7.90;68.32
13713;DHT22;6928;50.546;7.120;2023-03-17T02:11:44;7.83;68.55
13713;DHT22;6928;50.546;7.120;2023-03-17T02:14:11;7.82;68.69
13713;DHT22;6928;50.546;7.120;2023-03-17T02:16:39;7.82;68.59
13713;DHT22;6928;50.546;7.120;2023-03-17T02:19:05;7.81;68.59
13713;DHT22;6928;50.546;7.120;2023-03-17T02:21:43;7.79;68.83
13713;DHT22;6928;50.546;7.120;2023-03-17T02:24:18;7.77;68.61
13713;DHT22;6928;50.546;7.120;2023-03-17T02:26:48;7.82;68.52
13713;DHT22;6928;50.546;7.120;2023-03-17T02:29:18;7.82;68.64
13713;DHT22;6928;50.546;7.120;2023-03-17T02:31:45;7.83;68.59
13713;DHT22;6928;50.546;7.120;2023-03-17T02:34:12;7.66;69.17
13713;DHT22;6928;50.546;7.120;2023-03-17T02:36:41;7.66;69.04
13713;DHT22;6928;50.546;7.120;2023-03-17T02:39:08;7.75;69.02
13713;DHT22;6928;50.546;7.120;2023-03-17T02:41:35;7.69;69.21
13713;DHT22;6928;50.546;7.120;2023-03-17T02:44:02;7.71;69.23
13713;DHT22;6928;50.546;7.120;2023-03-17T02:46:29;7.63;69.49
13713;DHT22;6928;50.546;7.120;2023-03-17T02:48:56;7.69;69.34
13713;DHT22;6928;50.546;7.120;2023-03-17T02:51:23;7.65;69.39
13713;DHT22;6928;50.546;7.120;2023-03-17T02:53:51;7.65;69.37
13713;DHT22;6928;50.546;7.120;2023-03-17T02:56:17;7.52;69.83
13713;DHT22;6928;50.546;7.120;2023-03-17T02:58:44;7.63;69.30
13713;DHT22;6928;50.546;7.120;2023-03-17T03:01:11;7.52;69.56
13713;DHT22;6928;50.546;7.120;2023-03-17T03:03:38;7.62;69.09
13713;DHT22;6928;50.546;7.120;2023-03-17T03:06:05;7.59;69.38
13713;DHT22;6928;50.546;7.120;2023-03-17T03:08:33;7.52;69.60
13713;DHT22;6928;50.546;7.120;2023-03-17T03:11:01;7.51;69.39
13713;DHT22;6928;50.546;7.120;2023-03-17T03:13:29;7.55;69.40
13713;DHT22;6928;50.546;7.120;2023-03-17T03:15:56;7.54;69.32
13713;DHT22;6928;50.546;7.120;2023-03-17T03:18:23;7.50;69.48
13713;DHT22;6928;50.546;7.120;2023-03-17T03:20:50;7.45;69.46
13713;DHT22;6928;50.546;7.120;2023-03-17T03:23:17;7.40;69.63
13713;DHT22;6928;50.546;7.120;2023-03-17T03:25:44;7.45;69.67
13713;DHT22;6928;50.546;7.120;2023-03-17T03:28:12;7.37;69.89
13713;DHT22;6928;50.546;7.120;2023-03-17T03:30:39;7.38;69.72
13713;DHT22;6928;50.546;7.120;2023-03-17T03:33:09;7.34;69.86
13713;DHT22;6928;50.546;7.120;2023-03-17T03:35:37;7.34;69.97
13713;DHT22;6928;50.546;7.120;2023-03-17T03:38:04;7.27;70.12
13713;DHT22;6928;50.546;7.120;2023-03-17T03:40:31;7.26;70.21
13713;DHT22;6928;50.546;7.120;2023-03-17T03:42:58;7.28;70.20
13713;DHT22;6928;50.546;7.120;2023-03-17T03:45:26;7.07;70.69
13713;DHT22;6928;50.546;7.120;2023-03-17T03:47:53;7.01;71.02
13713;DHT22;6928;50.546;7.120;2023-03-17T03:50:20;7.06;71.02
13713;DHT22;6928;50.546;7.120;2023-03-17T03:52:47;7.03;71.06
13713;DHT22;6928;50.546;7.120;2023-03-17T03:55:15;6.92;71.71
13713;DHT22;6928;50.546;7.120;2023-03-17T03:57:41;6.93;71.58
13713;DHT22;6928;50.546;7.120;2023-03-17T04:00:11;6.88;71.80
13713;DHT22;6928;50.546;7.120;2023-03-17T04:02:40;6.99;71.51
13713;DHT22;6928;50.546;7.120;2023-03-17T04:05:09;6.99;71.52
13713;DHT22;6928;50.546;7.120;2023-03-17T04:07:37;7.01;71.37
13713;DHT22;6928;50.546;7.120;2023-03-17T04:10:05;6.97;71.51
13713;DHT22;6928;50.546;7.120;2023-03-17T04:12:33;6.95;71.85
13713;DHT22;6928;50.546;7.120;2023-03-17T04:15:00;6.75;72.42
13713;DHT22;6928;50.546;7.120;2023-03-17T04:17:26;6.67;72.69
13713;DHT22;6928;50.546;7.120;2023-03-17T04:19:55;6.65;72.80
13713;DHT22;6928;50.546;7.120;2023-03-17T04:22:21;6.52;73.15
13713;DHT22;6928;50.546;7.120;2023-03-17T04:24:48;6.55;73.33
13713;DHT22;6928;50.546;7.120;2023-03-17T04:27:15;6.42;73.71
13713;DHT22;6928;50.546;7.120;2023-03-17T04:29:43;6.48;73.56
13713;DHT22;6928;50.546;7.120;2023-03-17T04:32:11;6.61;72.95
13713;DHT22;6928;50.546;7.120;2023-03-17T04:34:38;6.55;73.07
13713;DHT22;6928;50.546;7.120;2023-03-17T04:37:07;6.62;72.71
13713;DHT22;6928;50.546;7.120;2023-03-17T04:39:34;6.68;72.51
13713;DHT22;6928;50.546;7.120;2023-03-17T04:42:01;6.73;72.17
13713;DHT22;6928;50.546;7.120;2023-03-17T04:44:28;6.62;72.89
13713;DHT22;6928;50.546;7.120;2023-03-17T04:46:55;6.42;73.57
13713;DHT22;6928;50.546;7.120;2023-03-17T04:49:22;5.90;75.42
13713;DHT22;6928;50.546;7.120;2023-03-17T04:51:48;5.94;75.74
13713;DHT22;6928;50.546;7.120;2023-03-17T04:54:16;5.91;75.97
13713;DHT22;6928;50.546;7.120;2023-03-17T04:56:43;6.18;74.85
13713;DHT22;6928;50.546;7.120;2023-03-17T04:59:10;6.32;74.07
13713;DHT22;6928;50.546;7.120;2023-03-17T05:01:37;6.32;74.39
13713;DHT22;6928;50.546;7.120;2023-03-17T05:04:03;6.11;75.08
13713;DHT22;6928;50.546;7.120;2023-03-17T05:06:31;5.94;75.62
13713;DHT22;6928;50.546;7.120;2023-03-17T05:08:57;5.83;76.08
13713;DHT22;6928;50.546;7.120;2023-03-17T05:11:26;5.73;76.42
13713;DHT22;6928;50.546;7.120;2023-03-17T05:13:52;5.89;76.17
13713;DHT22;6928;50.546;7.120;2023-03-17T05:16:19;5.48;77.37
13713;DHT22;6928;50.546;7.120;2023-03-17T05:18:46;5.63;76.97
13713;DHT22;6928;50.546;7.120;2023-03-17T05:21:13;5.55;77.14
13713;DHT22;6928;50.546;7.120;2023-03-17T05:23:40;5.62;77.16
13713;DHT22;6928;50.546;7.120;2023-03-17T05:26:07;5.63;76.95
13713;DHT22;6928;50.546;7.120;2023-03-17T05:28:36;5.72;76.39
13713;DHT22;6928;50.546;7.120;2023-03-17T05:31:02;5.73;76.67
13713;DHT22;6928;50.546;7.120;2023-03-17T05:33:29;5.62;77.25
13713;DHT22;6928;50.546;7.120;2023-03-17T05:35:56;5.62;77.13
13713;DHT22;6928;50.546;7.120;2023-03-17T05:38:23;5.55;77.48
13713;DHT22;6928;50.546;7.120;2023-03-17T05:40:50;5.61;77.18
13713;DHT22;6928;50.546;7.120;2023-03-17T05:43:17;5.66;77.35
13713;DHT22;6928;50.546;7.120;2023-03-17T05:45:46;5.59;77.28
13713;DHT22;6928;50.546;7.120;2023-03-17T05:48:15;5.66;77.17
13713;DHT22;6928;50.546;7.120;2023-03-17T05:50:42;5.62;77.18
13713;DHT22;6928;50.546;7.120;2023-03-17T05:53:09;5.63;77.06
13713;DHT22;6928;50.546;7.120;2023-03-17T05:55:36;5.63;77.11
13713;DHT22;6928;50.546;7.120;2023-03-17T05:58:02;5.46;77.84
13713;DHT22;6928;50.546;7.120;2023-03-17T06:00:31;5.51;77.92
13713;DHT22;6928;50.546;7.120;2023-03-17T06:02:59;5.66;77.77
13713;DHT22;6928;50.546;7.120;2023-03-17T06:05:26;5.68;77.59
13713;DHT22;6928;50.546;7.120;2023-03-17T06:07:53;5.59;78.06
13713;DHT22;6928;50.546;7.120;2023-03-17T06:10:20;5.59;77.91
13713;DHT22;6928;50.546;7.120;2023-03-17T06:12:47;5.62;77.40
13713;DHT22;6928;50.546;7.120;2023-03-17T06:15:14;5.76;77.19
13713;DHT22;6928;50.546;7.120;2023-03-17T06:17:41;5.63;77.76
13713;DHT22;6928;50.546;7.120;2023-03-17T06:20:11;5.61;77.93
13713;DHT22;6928;50.546;7.120;2023-03-17T06:22:39;5.75;77.55
13713;DHT22;6928;50.546;7.120;2023-03-17T06:25:06;5.76;77.54
13713;DHT22;6928;50.546;7.120;2023-03-17T06:27:35;5.83;77.55
13713;DHT22;6928;50.546;7.120;2023-03-17T06:30:03;5.85;77.54
13713;DHT22;6928;50.546;7.120;2023-03-17T06:32:30;6.03;76.87
13713;DHT22;6928;50.546;7.120;2023-03-17T06:34:57;6.04;76.96
13713;DHT22;6928;50.546;7.120;2023-03-17T06:37:25;6.20;76.98
13713;DHT22;6928;50.546;7.120;2023-03-17T06:39:52;6.18;76.56
13713;DHT22;6928;50.546;7.120;2023-03-17T06:42:19;6.30;77.09
13713;DHT22;6928;50.546;7.120;2023-03-17T06:44:46;6.42;76.21
13713;DHT22;6928;50.546;7.120;2023-03-17T06:47:16;6.52;75.83
13713;DHT22;6928;50.546;7.120;2023-03-17T06:49:43;6.48;75.97
13713;DHT22;6928;50.546;7.120;2023-03-17T06:52:10;6.59;75.77
13713;DHT22;6928;50.546;7.120;2023-03-17T06:54:39;6.75;75.19
13713;DHT22;6928;50.546;7.120;2023-03-17T06:57:07;6.85;75.05
13713;DHT22;6928;50.546;7.120;2023-03-17T06:59:34;6.93;74.92
13713;DHT22;6928;50.546;7.120;2023-03-17T07:02:01;7.23;74.69
13713;DHT22;6928;50.546;7.120;2023-03-17T07:04:28;7.31;74.80
13713;DHT22;6928;50.546;7.120;2023-03-17T07:06:55;7.27;74.04
13713;DHT22;6928;50.546;7.120;2023-03-17T07:09:22;7.51;73.99
13713;DHT22;6928;50.546;7.120;2023-03-17T07:11:50;7.65;73.81
13713;DHT22;6928;50.546;7.120;2023-03-17T07:14:17;7.79;73.25
13713;DHT22;6928;50.546;7.120;2023-03-17T07:16:45;7.82;73.18
13713;DHT22;6928;50.546;7.120;2023-03-17T07:19:12;8.06;73.05
13713;DHT22;6928;50.546;7.120;2023-03-17T07:21:39;8.09;72.38
13713;DHT22;6928;50.546;7.120;2023-03-17T07:24:06;7.90;72.64
13713;DHT22;6928;50.546;7.120;2023-03-17T07:26:34;7.77;73.21
13713;DHT22;6928;50.546;7.120;2023-03-17T07:29:02;7.77;73.21
13713;DHT22;6928;50.546;7.120;2023-03-17T07:31:30;7.69;73.10
13713;DHT22;6928;50.546;7.120;2023-03-17T07:33:57;7.88;72.98
13713;DHT22;6928;50.546;7.120;2023-03-17T07:36:23;7.99;72.35
13713;DHT22;6928;50.546;7.120;2023-03-17T07:38:50;7.95;72.41
13713;DHT22;6928;50.546;7.120;2023-03-17T07:41:17;7.92;72.41
13713;DHT22;6928;50.546;7.120;2023-03-17T07:43:44;8.13;71.93
13713;DHT22;6928;50.546;7.120;2023-03-17T07:46:12;8.19;71.38
13713;DHT22;6928;50.546;7.120;2023-03-17T07:48:40;8.23;71.82
13713;DHT22;6928;50.546;7.120;2023-03-17T07:51:13;8.41;71.62
13713;DHT22;6928;50.546;7.120;2023-03-17T07:53:40;8.42;71.65
13713;DHT22;6928;50.546;7.120;2023-03-17T07:56:07;8.47;71.27
13713;DHT22;6928;50.546;7.120;2023-03-17T07:58:34;8.55;71.00
13713;DHT22;6928;50.546;7.120;2023-03-17T08:01:01;8.75;70.11
13713;DHT22;6928;50.546;7.120;2023-03-17T08:03:30;9.06;69.44
13713;DHT22;6928;50.546;7.120;2023-03-17T08:05:59;9.16;68.22
13713;DHT22;6928;50.546;7.120;2023-03-17T08:08:28;9.22;67.98
13713;DHT22;6928;50.546;7.120;2023-03-17T08:11:00;9.39;67.00
13713;DHT22;6928;50.546;7.120;2023-03-17T08:13:28;9.48;66.37
13713;DHT22;6928;50.546;7.120;2023-03-17T08:15:54;9.58;65.78
13713;DHT22;6928;50.546;7.120;2023-03-17T08:18:21;9.64;65.59
13713;DHT22;6928;50.546;7.120;2023-03-17T08:20:50;9.64;66.40
13713;DHT22;6928;50.546;7.120;2023-03-17T08:23:17;9.72;66.22
13713;DHT22;6928;50.546;7.120;2023-03-17T08:25:43;9.87;65.28
13713;DHT22;6928;50.546;7.120;2023-03-17T08:28:11;9.88;65.53
13713;DHT22;6928;50.546;7.120;2023-03-17T08:30:38;9.89;65.37
13713;DHT22;6928;50.546;7.120;2023-03-17T08:33:05;9.85;65.33
13713;DHT22;6928;50.546;7.120;2023-03-17T08:35:33;10.02;65.54
13713;DHT22;6928;50.546;7.120;2023-03-17T08:38:01;9.99;65.27
13713;DHT22;6928;50.546;7.120;2023-03-17T08:40:28;10.16;65.54
13713;DHT22;6928;50.546;7.120;2023-03-17T08:42:55;10.19;64.94
13713;DHT22;6928;50.546;7.120;2023-03-17T08:45:22;10.37;65.00
13713;DHT22;6928;50.546;7.120;2023-03-17T08:47:49;10.57;64.84
13713;DHT22;6928;50.546;7.120;2023-03-17T08:50:19;10.61;64.75
13713;DHT22;6928;50.546;7.120;2023-03-17T08:52:47;10.70;63.46
13713;DHT22;6928;50.546;7.120;2023-03-17T08:55:15;10.85;63.07
13713;DHT22;6928;50.546;7.120;2023-03-17T08:57:43;10.94;62.77
13713;DHT22;6928;50.546;7.120;2023-03-17T09:00:13;11.05;62.32
13713;DHT22;6928;50.546;7.120;2023-03-17T09:02:42;11.26;62.63
13713;DHT22;6928;50.546;7.120;2023-03-17T09:05:11;11.16;62.16
13713;DHT22;6928;50.546;7.120;2023-03-17T09:07:38;11.38;62.15
13713;DHT22;6928;50.546;7.120;2023-03-17T09:10:08;11.36;61.43
13713;DHT22;6928;50.546;7.120;2023-03-17T09:12:36;11.60;61.01
13713;DHT22;6928;50.546;7.120;2023-03-17T09:15:04;11.62;61.09
13713;DHT22;6928;50.546;7.120;2023-03-17T09:17:32;11.69;61.60
13713;DHT22;6928;50.546;7.120;2023-03-17T09:19:59;11.71;60.98
13713;DHT22;6928;50.546;7.120;2023-03-17T09:22:25;11.87;61.09
13713;DHT22;6928;50.546;7.120;2023-03-17T09:24:52;11.93;60.79
13713;DHT22;6928;50.546;7.120;2023-03-17T09:27:19;11.87;61.33
13713;DHT22;6928;50.546;7.120;2023-03-17T09:29:47;12.02;61.46
13713;DHT22;6928;50.546;7.120;2023-03-17T09:32:15;12.14;61.02
13713;DHT22;6928;50.546;7.120;2023-03-17T09:34:42;12.38;62.46
13713;DHT22;6928;50.546;7.120;2023-03-17T09:37:09;12.39;60.03
13713;DHT22;6928;50.546;7.120;2023-03-17T09:39:36;12.36;60.12
13713;DHT22;6928;50.546;7.120;2023-03-17T09:42:23;12.35;60.82
13713;DHT22;6928;50.546;7.120;2023-03-17T09:45:10;12.42;60.38
13713;DHT22;6928;50.546;7.120;2023-03-17T09:48:01;12.44;60.53
13713;DHT22;6928;50.546;7.120;2023-03-17T09:50:37;12.84;60.03
13713;DHT22;6928;50.546;7.120;2023-03-17T09:53:05;13.15;57.39
13713;DHT22;6928;50.546;7.120;2023-03-17T09:55:38;12.90;59.05
13713;DHT22;6928;50.546;7.120;2023-03-17T09:58:09;13.54;55.51
13713;DHT22;6928;50.546;7.120;2023-03-17T10:00:38;13.75;53.82
13713;DHT22;6928;50.546;7.120;2023-03-17T10:03:09;13.99;53.55
13713;DHT22;6928;50.546;7.120;2023-03-17T10:05:36;14.02;52.97
13713;DHT22;6928;50.546;7.120;2023-03-17T10:08:10;13.97;53.44
13713;DHT22;6928;50.546;7.120;2023-03-17T10:10:44;13.79;54.80
13713;DHT22;6928;50.546;7.120;2023-03-17T10:13:26;13.83;53.53
13713;DHT22;6928;50.546;7.120;2023-03-17T10:15:59;13.99;53.61
13713;DHT22;6928;50.546;7.120;2023-03-17T10:18:37;14.25;52.97
13713;DHT22;6928;50.546;7.120;2023-03-17T10:21:11;14.17;51.58
13713;DHT22;6928;50.546;7.120;2023-03-17T10:23:39;14.28;51.77
13713;DHT22;6928;50.546;7.120;2023-03-17T10:26:12;14.24;51.52
13713;DHT22;6928;50.546;7.120;2023-03-17T10:28:42;14.28;51.54
13713;DHT22;6928;50.546;7.120;2023-03-17T10:31:17;14.51;52.08
13713;DHT22;6928;50.546;7.120;2023-03-17T10:33:48;14.37;51.87
13713;DHT22;6928;50.546;7.120;2023-03-17T10:36:32;14.48;51.99
13713;DHT22;6928;50.546;7.120;2023-03-17T10:39:03;14.74;52.08
13713;DHT22;6928;50.546;7.120;2023-03-17T10:41:34;14.69;51.61
13713;DHT22;6928;50.546;7.120;2023-03-17T10:44:07;14.50;52.05
13713;DHT22;6928;50.546;7.120;2023-03-17T10:46:37;14.79;51.43
13713;DHT22;6928;50.546;7.120;2023-03-17T10:49:07;14.85;51.68
13713;DHT22;6928;50.546;7.120;2023-03-17T10:51:36;14.89;51.35
13713;DHT22;6928;50.546;7.120;2023-03-17T10:54:09;14.81;51.15
13713;DHT22;6928;50.546;7.120;2023-03-17T10:56:38;14.79;50.71
13713;DHT22;6928;50.546;7.120;2023-03-17T10:59:14;14.85;50.54
13713;DHT22;6928;50.546;7.120;2023-03-17T11:01:48;14.88;50.59
13713;DHT22;6928;50.546;7.120;2023-03-17T11:04:27;14.98;51.25
13713;DHT22;6928;50.546;7.120;2023-03-17T11:06:55;14.88;52.07
13713;DHT22;6928;50.546;7.120;2023-03-17T11:09:24;14.75;53.25
13713;DHT22;6928;50.546;7.120;2023-03-17T11:12:02;14.78;54.43
13713;DHT22;6928;50.546;7.120;2023-03-17T11:14:29;14.75;54.84
13713;DHT22;6928;50.546;7.120;2023-03-17T11:17:00;14.67;54.77
13713;DHT22;6928;50.546;7.120;2023-03-17T11:19:39;14.79;54.50
13713;DHT22;6928;50.546;7.120;2023-03-17T11:22:12;14.79;54.06
13713;DHT22;6928;50.546;7.120;2023-03-17T11:24:51;15.03;54.06
13713;DHT22;6928;50.546;7.120;2023-03-17T11:27:29;15.10;52.32
13713;DHT22;6928;50.546;7.120;2023-03-17T11:30:14;14.99;52.23
13713;DHT22;6928;50.546;7.120;2023-03-17T11:32:48;14.93;52.68
13713;DHT22;6928;50.546;7.120;2023-03-17T11:35:48;15.09;51.91
13713;DHT22;6928;50.546;7.120;2023-03-17T11:38:23;15.16;52.13
13713;DHT22;6928;50.546;7.120;2023-03-17T11:41:15;15.26;52.48
13713;DHT22;6928;50.546;7.120;2023-03-17T11:44:05;15.40;51.48
13713;DHT22;6928;50.546;7.120;2023-03-17T11:46:35;15.27;51.85
13713;DHT22;6928;50.546;7.120;2023-03-17T11:49:10;15.39;52.67
13713;DHT22;6928;50.546;7.120;2023-03-17T11:51:50;15.20;53.47
13713;DHT22;6928;50.546;7.120;2023-03-17T11:54:30;15.06;54.63
13713;DHT22;6928;50.546;7.120;2023-03-17T11:57:02;15.06;56.36
13713;DHT22;6928;50.546;7.120;2023-03-17T11:59:37;15.29;55.05
13713;DHT22;6928;50.546;7.120;2023-03-17T12:02:18;15.51;53.46
13713;DHT22;6928;50.546;7.120;2023-03-17T12:04:53;15.30;54.39
13713;DHT22;6928;50.546;7.120;2023-03-17T12:07:24;15.39;55.49
13713;DHT22;6928;50.546;7.120;2023-03-17T12:10:12;15.55;54.68
13713;DHT22;6928;50.546;7.120;2023-03-17T12:12:47;15.34;54.69
13713;DHT22;6928;50.546;7.120;2023-03-17T12:15:25;15.53;54.68
13713;DHT22;6928;50.546;7.120;2023-03-17T12:18:01;15.57;53.91
13713;DHT22;6928;50.546;7.120;2023-03-17T12:20:36;15.43;54.85
13713;DHT22;6928;50.546;7.120;2023-03-17T12:23:16;15.54;55.13
13713;DHT22;6928;50.546;7.120;2023-03-17T12:25:50;15.55;54.68
13713;DHT22;6928;50.546;7.120;2023-03-17T12:28:26;15.53;54.68
13713;DHT22;6928;50.546;7.120;2023-03-17T12:31:01;15.65;54.75
13713;DHT22;6928;50.546;7.120;2023-03-17T12:33:36;15.53;54.47
13713;DHT22;6928;50.546;7.120;2023-03-17T12:36:13;15.43;54.88
13713;DHT22;6928;50.546;7.120;2023-03-17T12:38:44;15.44;54.28
13713;DHT22;6928;50.546;7.120;2023-03-17T12:41:54;15.60;54.52
13713;DHT22;6928;50.546;7.120;2023-03-17T12:44:39;15.78;53.95
13713;DHT22;6928;50.546;7.120;2023-03-17T12:47:54;15.70;54.23
13713;DHT22;6928;50.546;7.120;2023-03-17T12:53:45;15.85;52.69
13713;DHT22;6928;50.546;7.120;2023-03-17T12:56:19;15.61;52.75
13713;DHT22;6928;50.546;7.120;2023-03-17T12:58:49;15.85;52.66
13713;DHT22;6928;50.546;7.120;2023-03-17T13:01:28;15.89;53.27
13713;DHT22;6928;50.546;7.120;2023-03-17T13:04:04;15.77;53.19
13713;DHT22;6928;50.546;7.120;2023-03-17T13:06:44;15.84;53.27
13713;DHT22;6928;50.546;7.120;2023-03-17T13:09:47;15.82;53.68
13713;DHT22;6928;50.546;7.120;2023-03-17T13:15:50;15.72;53.28
13713;DHT22;6928;50.546;7.120;2023-03-17T13:21:12;15.75;53.68
13713;DHT22;6928;50.546;7.120;2023-03-17T13:23:43;15.60;54.10
13713;DHT22;6928;50.546;7.120;2023-03-17T13:26:14;15.60;53.98
13713;DHT22;6928;50.546;7.120;2023-03-17T13:28:45;15.55;53.73
13713;DHT22;6928;50.546;7.120;2023-03-17T13:31:31;15.49;54.03
13713;DHT22;6928;50.546;7.120;2023-03-17T13:34:11;15.33;53.59
13713;DHT22;6928;50.546;7.120;2023-03-17T13:36:54;15.47;53.62
13713;DHT22;6928;50.546;7.120;2023-03-17T13:40:00;15.43;53.77
13713;DHT22;6928;50.546;7.120;2023-03-17T13:42:51;15.41;53.47
13713;DHT22;6928;50.546;7.120;2023-03-17T13:45:35;15.46;53.23
13713;DHT22;6928;50.546;7.120;2023-03-17T13:48:39;15.34;53.43
13713;DHT22;6928;50.546;7.120;2023-03-17T13:51:18;15.37;53.25
13713;DHT22;6928;50.546;7.120;2023-03-17T13:53:51;15.43;53.37
13713;DHT22;6928;50.546;7.120;2023-03-17T13:56:25;15.37;53.09
13713;DHT22;6928;50.546;7.120;2023-03-17T13:59:14;15.39;53.35
13713;DHT22;6928;50.546;7.120;2023-03-17T14:01:46;15.40;53.16
13713;DHT22;6928;50.546;7.120;2023-03-17T14:04:20;15.41;53.67
13713;DHT22;6928;50.546;7.120;2023-03-17T14:06:51;15.49;54.10
13713;DHT22;6928;50.546;7.120;2023-03-17T14:09:35;15.44;53.54
13713;DHT22;6928;50.546;7.120;2023-03-17T14:12:10;15.46;52.74
13713;DHT22;6928;50.546;7.120;2023-03-17T14:14:47;15.49;51.80
13713;DHT22;6928;50.546;7.120;2023-03-17T14:17:21;15.47;51.74
13713;DHT22;6928;50.546;7.120;2023-03-17T14:20:00;15.43;50.90
13713;DHT22;6928;50.546;7.120;2023-03-17T14:22:29;15.41;52.39
13713;DHT22;6928;50.546;7.120;2023-03-17T14:25:00;15.51;50.68
13713;DHT22;6928;50.546;7.120;2023-03-17T14:27:30;15.43;49.61
13713;DHT22;6928;50.546;7.120;2023-03-17T14:30:07;15.40;49.94
13713;DHT22;6928;50.546;7.120;2023-03-17T14:32:35;15.34;49.99
13713;DHT22;6928;50.546;7.120;2023-03-17T14:35:02;15.37;51.88
13713;DHT22;6928;50.546;7.120;2023-03-17T14:37:29;15.23;54.98
13713;DHT22;6928;50.546;7.120;2023-03-17T14:39:56;14.99;56.07
13713;DHT22;6928;50.546;7.120;2023-03-17T14:42:27;14.89;56.50
13713;DHT22;6928;50.546;7.120;2023-03-17T14:45:03;14.89;56.71
13713;DHT22;6928;50.546;7.120;2023-03-17T14:47:37;14.83;56.53
13713;DHT22;6928;50.546;7.120;2023-03-17T14:50:15;14.72;56.75
13713;DHT22;6928;50.546;7.120;2023-03-17T14:52:43;14.74;56.96
13713;DHT22;6928;50.546;7.120;2023-03-17T14:55:13;14.75;56.96
13713;DHT22;6928;50.546;7.120;2023-03-17T14:57:41;14.71;56.96
13713;DHT22;6928;50.546;7.120;2023-03-17T15:00:26;14.64;57.07
13713;DHT22;6928;50.546;7.120;2023-03-17T15:02:59;14.60;57.46
13713;DHT22;6928;50.546;7.120;2023-03-17T15:05:35;14.54;57.68
13713;DHT22;6928;50.546;7.120;2023-03-17T15:08:38;14.50;57.93
13713;DHT22;6928;50.546;7.120;2023-03-17T15:11:06;14.54;57.74
13713;DHT22;6928;50.546;7.120;2023-03-17T15:13:36;14.48;57.77
13713;DHT22;6928;50.546;7.120;2023-03-17T15:16:10;14.50;57.89
13713;DHT22;6928;50.546;7.120;2023-03-17T15:18:42;14.47;58.01
13713;DHT22;6928;50.546;7.120;2023-03-17T15:21:22;14.42;58.15
13713;DHT22;6928;50.546;7.120;2023-03-17T15:23:49;14.44;58.34
13713;DHT22;6928;50.546;7.120;2023-03-17T15:26:22;14.40;58.56
13713;DHT22;6928;50.546;7.120;2023-03-17T15:28:50;14.40;58.45
13713;DHT22;6928;50.546;7.120;2023-03-17T15:31:16;14.41;58.37
13713;DHT22;6928;50.546;7.120;2023-03-17T15:33:49;14.37;58.88
13713;DHT22;6928;50.546;7.120;2023-03-17T15:36:17;14.35;58.83
13713;DHT22;6928;50.546;7.120;2023-03-17T15:38:43;14.33;59.08
13713;DHT22;6928;50.546;7.120;2023-03-17T15:41:10;14.30;59.89
13713;DHT22;6928;50.546;7.120;2023-03-17T15:43:37;14.28;60.23
13713;DHT22;6928;50.546;7.120;2023-03-17T15:46:09;14.24;60.63
13713;DHT22;6928;50.546;7.120;2023-03-17T15:48:37;14.27;61.29
13713;DHT22;6928;50.546;7.120;2023-03-17T15:51:05;14.23;60.71
13713;DHT22;6928;50.546;7.120;2023-03-17T15:53:32;14.23;60.23
13713;DHT22;6928;50.546;7.120;2023-03-17T15:55:59;14.27;60.06
13713;DHT22;6928;50.546;7.120;2023-03-17T15:58:26;14.27;59.53
13713;DHT22;6928;50.546;7.120;2023-03-17T16:00:56;14.21;59.51
13713;DHT22;6928;50.546;7.120;2023-03-17T16:03:28;14.17;59.24
13713;DHT22;6928;50.546;7.120;2023-03-17T16:05:56;14.16;59.25
13713;DHT22;6928;50.546;7.120;2023-03-17T16:08:25;14.14;59.33
13713;DHT22;6928;50.546;7.120;2023-03-17T16:10:52;14.18;59.68
13713;DHT22;6928;50.546;7.120;2023-03-17T16:13:19;14.50;59.79
13713;DHT22;6928;50.546;7.120;2023-03-17T16:15:52;14.21;59.49
13713;DHT22;6928;50.546;7.120;2023-03-17T16:18:28;14.21;59.44
13713;DHT22;6928;50.546;7.120;2023-03-17T16:20:57;14.30;59.50
13713;DHT22;6928;50.546;7.120;2023-03-17T16:23:29;14.18;59.63
13713;DHT22;6928;50.546;7.120;2023-03-17T16:25:56;14.18;59.41
13713;DHT22;6928;50.546;7.120;2023-03-17T16:28:25;14.13;59.75
13713;DHT22;6928;50.546;7.120;2023-03-17T16:30:54;14.17;59.34